Time;durP1;ratioP1;P1;durP2;ratioP2;P2;SDS_P1;SDS_P2;PMS_P1;PMS_P2;Temp;Humidity;BMP_temperature;BMP_pressure;BME280_temperature;BME280_humidity;BME280_pressure;Samples;Min_cycle;Max_cycle;Signal;HPM_P1;HPM_P2
2022/04/26 03:37:51;;;;;;;8.13;5.30;;;10.30;99.90;;;;;;5116073;28;20424;-44
2022/04/26 03:40:18;;;;;;;11.10;7.10;;;10.40;99.90;;;;;;5112117;28;20945;-49
2022/04/26 03:46:09;;;;;;;8.93;5.20;;;10.60;99.90;;;;;;5114910;28;20770;-44
2022/04/26 03:48:35;;;;;;;8.20;4.13;;;10.60;99.90;;;;;;5115901;28;20539;-50
2022/04/26 03:51:05;;;;;;;8.53;5.37;;;10.50;99.90;;;;;;5115984;28;20487;-47
2022/04/26 03:53:32;;;;;;;8.00;4.20;;;10.40;99.90;;;;;;5104893;28;20492;-45
2022/04/26 03:55:58;;;;;;;10.30;5.43;;;10.30;99.90;;;;;;5112188;28;20495;-44
2022/04/26 03:58:26;;;;;;;7.93;3.40;;;10.30;99.90;;;;;;5116400;28;20444;-48
2022/04/26 04:00:53;;;;;;;9.10;6.23;;;10.30;99.90;;;;;;5114399;28;21040;-50
2022/04/26 04:03:23;;;;;;;6.90;4.80;;;10.40;99.90;;;;;;5115707;28;20548;-46
2022/04/26 04:05:50;;;;;;;9.90;5.90;;;10.50;99.90;;;;;;5113922;28;20540;-48
2022/04/26 04:08:18;;;;;;;7.73;5.20;;;10.50;99.90;;;;;;5120970;28;20543;-46
2022/04/26 04:10:45;;;;;;;5.50;3.60;;;10.60;99.90;;;;;;5120670;28;20535;-45
2022/04/26 04:13:12;;;;;;;10.63;5.60;;;10.70;99.90;;;;;;5121330;28;20924;-47
2022/04/26 04:15:39;;;;;;;8.00;5.67;;;10.70;99.90;;;;;;5119688;28;20524;-44
2022/04/26 04:19:17;;;;;;;8.97;5.87;;;10.60;99.90;;;;;;5121172;28;20444;-46
2022/04/26 04:20:53;;;;;;;7.00;4.87;;;10.60;99.90;;;;;;5120223;28;20472;-45
2022/04/26 04:23:22;;;;;;;6.93;4.73;;;10.40;99.90;;;;;;5121622;28;20501;-45
2022/04/26 04:25:52;;;;;;;8.30;2.90;;;10.40;99.90;;;;;;5120010;28;20950;-44
2022/04/26 04:28:18;;;;;;;12.17;6.10;;;10.40;99.90;;;;;;5120963;28;20501;-45
2022/04/26 04:30:46;;;;;;;8.73;5.67;;;10.30;99.90;;;;;;5119845;28;20932;-44
2022/04/26 04:33:12;;;;;;;14.23;5.83;;;10.30;99.90;;;;;;5112140;28;20856;-45
2022/04/26 04:35:39;;;;;;;7.70;4.87;;;10.30;99.90;;;;;;5119443;28;20484;-45
2022/04/26 04:38:06;;;;;;;5.23;4.27;;;10.30;99.90;;;;;;5120994;28;20866;-47
2022/04/26 04:40:35;;;;;;;7.47;4.90;;;10.20;99.90;;;;;;5119865;28;20480;-44
2022/04/26 04:43:02;;;;;;;6.57;4.10;;;10.20;99.90;;;;;;5120877;28;20488;-47
2022/04/26 04:45:29;;;;;;;8.13;4.27;;;10.10;99.90;;;;;;5121183;28;20450;-47
2022/04/26 04:47:55;;;;;;;4.87;3.13;;;10.10;99.90;;;;;;5121373;28;20558;-47
2022/04/26 04:50:22;;;;;;;8.63;3.90;;;10.20;99.90;;;;;;5120075;28;20519;-47
2022/04/26 04:52:50;;;;;;;5.53;4.53;;;10.20;99.90;;;;;;5120132;28;20813;-46
2022/04/26 04:55:17;;;;;;;9.43;4.37;;;10.30;99.90;;;;;;5120944;28;20445;-43
2022/04/26 04:57:45;;;;;;;5.67;4.00;;;10.30;99.90;;;;;;5101958;28;20577;-47
2022/04/26 05:00:20;;;;;;;4.40;3.60;;;10.40;99.90;;;;;;5090083;28;21134;-45
2022/04/26 05:02:47;;;;;;;5.77;4.67;;;10.60;99.90;;;;;;5110753;28;20436;-46
2022/04/26 05:05:17;;;;;;;9.57;5.07;;;10.60;99.90;;;;;;5121839;28;20437;-44
2022/04/26 05:07:44;;;;;;;5.60;3.97;;;10.50;99.90;;;;;;5121362;28;20491;-46
2022/04/26 05:10:12;;;;;;;5.50;2.97;;;10.50;99.90;;;;;;5103819;28;20872;-48
2022/04/26 05:12:39;;;;;;;8.47;4.77;;;10.70;99.90;;;;;;5099935;28;20453;-47
2022/04/26 05:15:08;;;;;;;5.63;3.20;;;10.80;99.90;;;;;;5099720;28;20821;-46
2022/04/26 05:17:35;;;;;;;5.97;4.50;;;10.80;99.90;;;;;;5118787;28;20462;-44
2022/04/26 05:20:02;;;;;;;6.70;4.73;;;10.80;99.90;;;;;;5114131;28;20902;-44
2022/04/26 05:22:30;;;;;;;8.00;4.90;;;10.80;99.90;;;;;;5107755;28;20572;-45
2022/04/26 05:24:59;;;;;;;6.30;4.30;;;10.80;99.90;;;;;;5108507;28;20966;-44
2022/04/26 05:27:27;;;;;;;5.47;3.70;;;10.70;99.90;;;;;;5097561;28;20867;-48
2022/04/26 05:29:55;;;;;;;4.50;3.47;;;10.60;99.90;;;;;;5103505;28;20539;-46
2022/04/26 05:32:30;;;;;;;8.57;3.37;;;10.40;99.90;;;;;;5116813;28;20472;-43
2022/04/26 05:35:01;;;;;;;7.37;3.70;;;10.30;99.90;;;;;;5115590;28;20456;-43
2022/04/26 05:37:29;;;;;;;4.97;3.67;;;10.30;99.90;;;;;;5116316;28;20544;-44
2022/04/26 05:39:56;;;;;;;4.93;3.27;;;10.30;99.90;;;;;;5090601;28;20440;-45
2022/04/26 05:42:33;;;;;;;7.50;5.07;;;10.20;99.90;;;;;;5114684;28;20500;-47
2022/04/26 05:45:02;;;;;;;6.90;5.85;;;10.20;99.90;;;;;;5109255;28;20596;-66
2022/04/26 05:47:38;;;;;;;9.43;5.80;;;10.20;99.90;;;;;;5113660;28;20195;-66
2022/04/26 05:50:12;;;;;;;8.60;5.17;;;10.20;99.90;;;;;;5109707;28;20448;-54
2022/04/26 05:52:41;;;;;;;5.87;4.00;;;10.20;99.90;;;;;;5095236;28;20540;-55
2022/04/26 05:55:21;;;;;;;7.00;5.27;;;10.20;99.90;;;;;;5103445;28;20510;-54
2022/04/26 05:58:01;;;;;;;6.17;4.63;;;10.30;99.90;;;;;;5109887;28;20598;-56
2022/04/26 06:03:17;;;;;;;9.40;4.90;;;10.40;99.90;;;;;;5101074;28;20756;-54
2022/04/26 06:05:45;;;;;;;7.90;4.67;;;10.30;99.90;;;;;;5096722;28;20444;-55
2022/04/26 06:08:22;;;;;;;6.30;3.37;;;10.30;99.90;;;;;;5109270;28;20441;-55
2022/04/26 06:10:57;;;;;;;9.13;5.40;;;10.20;99.90;;;;;;5116044;28;20468;-57
2022/04/26 06:13:32;;;;;;;6.17;3.80;;;10.20;99.90;;;;;;5078330;28;20464;-57
2022/04/26 06:16:00;;;;;;;7.33;5.10;;;10.20;99.90;;;;;;5106636;28;20527;-58
2022/04/26 06:18:40;;;;;;;7.30;5.47;;;10.20;99.90;;;;;;5103461;28;20747;-56
2022/04/26 06:21:14;;;;;;;7.33;4.70;;;10.20;99.90;;;;;;5116946;28;20476;-56
2022/04/26 06:23:41;;;;;;;9.30;5.17;;;10.20;99.90;;;;;;5106195;28;20463;-56
2022/04/26 06:26:15;;;;;;;6.27;4.43;;;10.20;99.90;;;;;;5102817;28;20729;-56
2022/04/26 06:28:45;;;;;;;8.23;4.30;;;10.20;99.90;;;;;;5104692;28;20668;-57
2022/04/26 06:31:14;;;;;;;4.40;3.33;;;10.20;99.90;;;;;;5111542;28;20452;-57
2022/04/26 06:33:53;;;;;;;9.13;4.13;;;10.20;99.90;;;;;;5104553;28;20448;-57
2022/04/26 06:36:42;;;;;;;5.27;2.70;;;10.10;99.90;;;;;;5084175;28;20449;-57
2022/04/26 06:39:12;;;;;;;8.53;4.07;;;10.30;99.90;;;;;;5108859;28;20448;-57
2022/04/26 06:41:42;;;;;;;6.50;3.90;;;10.50;99.90;;;;;;5113778;28;20854;-57
2022/04/26 06:44:21;;;;;;;7.77;3.70;;;10.40;99.90;;;;;;5108269;28;20525;-57
2022/04/26 06:46:48;;;;;;;4.60;3.40;;;10.60;99.90;;;;;;5114611;28;20493;-57
2022/04/26 06:49:28;;;;;;;10.90;3.90;;;10.70;99.90;;;;;;5112807;28;20495;-57
2022/04/26 06:51:55;;;;;;;5.75;3.83;;;11.00;99.90;;;;;;5091145;28;20475;-58
2022/04/26 06:54:28;;;;;;;5.30;3.20;;;11.10;99.90;;;;;;5101598;28;20709;-58
2022/04/26 06:57:09;;;;;;;3.23;2.37;;;11.00;99.90;;;;;;5096035;28;20534;-58
2022/04/26 06:59:49;;;;;;;5.40;2.87;;;10.90;99.90;;;;;;5106773;28;20501;-57
2022/04/26 07:02:26;;;;;;;3.20;1.67;;;10.90;99.90;;;;;;5101439;28;20477;-58
2022/04/26 07:05:07;;;;;;;2.77;2.40;;;11.20;99.90;;;;;;5088091;28;20833;-58
2022/04/26 07:07:48;;;;;;;3.80;2.90;;;11.20;99.90;;;;;;5102646;28;20440;-60
2022/04/26 07:13:11;;;;;;;3.40;1.90;;;11.30;99.90;;;;;;5110433;28;20448;-55
2022/04/26 07:16:01;;;;;;;3.10;1.93;;;11.30;99.90;;;;;;5107084;28;20814;-55
2022/04/26 07:18:41;;;;;;;2.60;1.47;;;11.50;99.90;;;;;;5112794;28;20490;-58
2022/04/26 07:21:10;;;;;;;4.80;1.40;;;11.70;99.90;;;;;;5075628;28;20445;-54
2022/04/26 07:23:40;;;;;;;3.83;2.27;;;11.80;99.90;;;;;;5113594;28;20445;-56
2022/04/26 07:26:18;;;;;;;2.17;1.30;;;11.90;99.90;;;;;;5112895;28;20544;-57
2022/04/26 07:28:57;;;;;;;1.43;1.00;;;11.80;99.90;;;;;;5103631;28;20894;-56
2022/04/26 07:31:51;;;;;;;1.97;1.30;;;11.70;99.90;;;;;;5094940;28;20454;-56
2022/04/26 07:34:24;;;;;;;1.90;1.07;;;12.00;99.90;;;;;;5080924;28;20445;-57
2022/04/26 07:37:10;;;;;;;1.40;1.00;;;12.30;99.90;;;;;;5094656;28;20453;-57
2022/04/26 07:39:56;;;;;;;1.90;1.27;;;12.70;99.90;;;;;;5109746;28;20501;-58
2022/04/26 07:42:32;;;;;;;2.47;1.20;;;12.80;99.90;;;;;;5112975;27;20468;-56
2022/04/26 07:45:09;;;;;;;1.90;1.00;;;12.90;99.90;;;;;;5112525;28;20851;-57
2022/04/26 07:47:48;;;;;;;5.70;1.00;;;12.70;99.90;;;;;;5080412;28;20448;-56
2022/04/26 07:50:18;;;;;;;2.43;1.30;;;12.70;99.90;;;;;;5107734;28;20449;-57
2022/04/26 07:53:03;;;;;;;4.03;1.40;;;12.20;99.90;;;;;;5093572;28;20808;-57
2022/04/26 07:55:34;;;;;;;2.30;1.10;;;12.00;99.90;;;;;;5095009;28;20525;-55
2022/04/26 07:58:22;;;;;;;2.30;1.10;;;12.00;99.90;;;;;;5104450;28;20533;-57
2022/04/26 08:00:52;;;;;;;1.47;1.00;;;12.20;99.90;;;;;;5112913;28;20471;-56
2022/04/26 08:03:23;;;;;;;1.90;1.00;;;12.30;99.90;;;;;;5092834;28;20583;-57
2022/04/26 08:06:00;;;;;;;3.07;1.80;;;12.10;99.90;;;;;;5093861;28;20477;-57
2022/04/26 08:08:30;;;;;;;3.00;1.83;;;12.10;99.90;;;;;;5092801;28;20548;-57
2022/04/26 08:11:15;;;;;;;2.13;1.30;;;12.20;99.90;;;;;;5112325;28;20441;-57
2022/04/26 08:14:00;;;;;;;2.17;1.30;;;12.20;99.90;;;;;;5113814;28;20495;-57
2022/04/26 08:19:11;;;;;;;1.73;1.30;;;12.10;99.90;;;;;;5070217;28;20476;-58
2022/04/26 08:21:51;;;;;;;2.57;1.30;;;12.20;99.90;;;;;;5072960;28;20474;-57
2022/04/26 08:27:35;;;;;;;2.20;1.37;;;12.00;99.90;;;;;;5061230;28;20438;-58
2022/04/26 08:33:23;;;;;;;2.10;1.20;;;11.90;99.10;;;;;;5071423;28;20482;-58
2022/04/26 08:36:06;;;;;;;1.80;1.30;;;12.10;99.90;;;;;;5077262;28;20492;-57
2022/04/26 08:38:58;;;;;;;1.77;1.10;;;12.20;99.90;;;;;;5093378;28;20437;-58
2022/04/26 08:41:46;;;;;;;2.23;1.27;;;12.50;99.90;;;;;;5089186;28;20730;-57
2022/04/26 08:44:15;;;;;;;3.27;1.40;;;12.70;67.20;;;;;;5091724;28;20459;-57
2022/04/26 08:52:34;;;;;;;2.53;1.87;;;13.40;44.20;;;;;;5080331;28;20441;-57
2022/04/26 08:55:13;;;;;;;2.60;1.77;;;13.30;23.30;;;;;;5096208;28;20497;-56
2022/04/26 09:00:38;;;;;;;2.10;1.30;;;12.90;30.40;;;;;;5082997;28;20449;-58
2022/04/26 09:03:21;;;;;;;2.10;1.40;;;12.80;1.00;;;;;;5076853;28;20784;-58
2022/04/26 09:06:05;;;;;;;2.90;1.40;;;12.60;24.00;;;;;;5059822;28;20492;-58
2022/04/26 09:08:39;;;;;;;1.60;1.20;;;12.70;1.00;;;;;;5076988;28;20461;-58
2022/04/26 09:11:46;;;;;;;2.70;1.70;;;12.80;1.00;;;;;;5087494;28;20480;-58
2022/04/26 09:14:32;;;;;;;2.03;1.40;;;12.90;1.00;;;;;;5014227;28;20476;-59
2022/04/26 09:20:10;;;;;;;2.30;1.40;;;12.70;1.00;;;;;;5038934;28;20757;-57
2022/04/26 09:22:42;;;;;;;2.67;1.23;;;12.90;1.00;;;;;;5081033;28;20531;-59
2022/04/26 09:25:14;;;;;;;3.17;1.40;;;13.00;1.00;;;;;;5088177;28;20817;-58
2022/04/26 09:27:49;;;;;;;2.00;1.10;;;12.70;1.00;;;;;;5064085;28;20885;-57
2022/04/26 09:30:31;;;;;;;2.13;1.20;;;12.80;1.00;;;;;;5058062;28;20496;-59
2022/04/26 09:36:09;;;;;;;1.80;1.13;;;13.40;1.00;;;;;;5082029;28;20438;-58
2022/04/26 09:41:53;;;;;;;1.50;1.07;;;13.40;1.00;;;;;;5092271;28;20521;-56
2022/04/26 09:44:42;;;;;;;4.60;1.00;;;13.70;1.00;;;;;;5095052;28;20498;-57
2022/04/26 09:47:38;;;;;;;1.30;1.00;;;13.80;99.90;;;;;;5094916;28;20473;-57
2022/04/26 09:50:35;;;;;;;1.27;0.90;;;13.70;1.00;;;;;;5083857;28;20570;-57
2022/04/26 09:55:49;;;;;;;2.07;1.10;;;13.80;1.00;;;;;;5086535;28;20921;-53
2022/04/26 09:58:23;;;;;;;2.13;0.90;;;14.00;99.90;;;;;;5093081;28;20493;-54
2022/04/26 10:01:04;;;;;;;1.40;1.00;;;14.20;99.60;;;;;;5076150;28;20461;-53
2022/04/26 10:03:53;;;;;;;1.33;1.00;;;14.50;34.20;;;;;;5084860;28;21106;-54
2022/04/26 10:06:31;;;;;;;2.23;0.90;;;14.50;1.00;;;;;;5074394;28;20901;-55
2022/04/26 10:09:08;;;;;;;1.53;1.00;;;14.70;1.00;;;;;;5088715;28;20455;-54
2022/04/26 10:11:47;;;;;;;2.33;1.20;;;14.50;1.00;;;;;;5088481;28;20467;-53
2022/04/26 10:14:25;;;;;;;1.67;0.90;;;14.50;1.00;;;;;;5073100;28;20465;-55
2022/04/26 10:19:53;;;;;;;2.60;1.10;;;14.80;47.70;;;;;;5079271;28;20868;-56
2022/04/26 10:26:30;;;;;;;1.30;0.90;;;14.50;1.00;;;;;;5067567;28;20443;-52
2022/04/26 10:29:18;;;;;;;1.50;1.00;;;14.50;1.00;;;;;;5085377;28;20453;-54
2022/04/26 10:32:30;;;;;;;4.17;1.00;;;15.20;1.00;;;;;;5090418;28;21068;-55
2022/04/26 10:38:22;;;;;;;1.40;0.90;;;16.80;1.00;;;;;;5029029;28;20480;-56
2022/04/26 10:41:11;;;;;;;1.00;0.83;;;16.80;1.00;;;;;;5019486;28;20467;-56
2022/04/26 10:44:21;;;;;;;1.90;0.90;;;16.70;1.00;;;;;;5012557;28;20488;-52
2022/04/26 10:47:48;;;;;;;1.47;1.00;;;16.20;1.00;;;;;;5016514;28;20495;-55
2022/04/26 10:50:46;;;;;;;1.10;0.80;;;16.20;1.00;;;;;;5018251;28;20950;-55
2022/04/26 10:53:59;;;;;;;1.17;0.90;;;15.90;1.00;;;;;;5032074;28;20451;-53
2022/04/26 10:56:43;;;;;;;1.70;0.80;;;15.50;1.00;;;;;;5014061;28;20452;-55
2022/04/26 10:59:29;;;;;;;2.10;0.93;;;15.30;1.00;;;;;;5035497;28;20518;-53
2022/04/26 11:07:57;;;;;;;2.43;0.67;;;15.70;1.00;;;;;;5034570;28;20474;-55
2022/04/26 11:13:39;;;;;;;1.60;0.77;;;16.10;1.00;;;;;;5012238;28;20438;-51
2022/04/26 11:19:36;;;;;;;0.90;0.50;;;16.20;1.00;;;;;;5004787;28;20532;-54
2022/04/26 11:22:21;;;;;;;1.83;0.70;;;16.30;1.00;;;;;;5011970;28;20490;-50
2022/04/26 11:28:06;;;;;;;1.83;0.93;;;16.40;1.00;;;;;;5012127;28;20591;-53
2022/04/26 11:34:02;;;;;;;2.33;1.30;;;16.20;1.00;;;;;;4992094;28;20441;-53
2022/04/26 11:36:53;;;;;;;1.57;1.07;;;16.30;1.00;;;;;;5003226;28;20473;-55
2022/04/26 11:39:46;;;;;;;1.60;1.10;;;16.40;1.00;;;;;;4996229;28;20519;-57
2022/04/26 11:45:22;;;;;;;2.57;1.20;;;16.10;1.00;;;;;;4993914;28;20534;-56
2022/04/26 11:47:59;;;;;;;1.70;1.10;;;15.60;1.00;;;;;;4976265;28;20959;-54
2022/04/26 11:50:30;;;;;;;1.73;1.20;;;15.20;1.00;;;;;;4958576;28;20863;-56
2022/04/26 11:56:00;;;;;;;1.47;0.90;;;14.80;1.00;;;;;;4997143;28;20721;-55
2022/04/26 11:58:49;;;;;;;2.92;1.20;;;14.40;43.30;;;;;;5000384;28;20463;-59
2022/04/26 12:01:22;;;;;;;1.50;1.13;;;14.20;99.90;;;;;;5011222;28;20206;-59
2022/04/26 12:04:16;;;;;;;1.30;0.90;;;14.30;99.90;;;;;;5001415;28;20492;-60
2022/04/26 12:07:10;;;;;;;1.33;0.90;;;14.30;22.90;;;;;;5015112;28;20460;-58
2022/04/26 12:09:45;;;;;;;2.03;0.87;;;14.70;1.00;;;;;;5032572;28;20479;-61
2022/04/26 12:12:38;;;;;;;1.53;0.90;;;14.80;1.00;;;;;;5030967;28;21054;-60
2022/04/26 12:15:17;;;;;;;1.40;0.87;;;14.60;1.00;;;;;;5017682;28;20535;-60
2022/04/26 12:18:03;;;;;;;1.57;0.80;;;14.40;1.00;;;;;;5032116;28;20763;-58
2022/04/26 12:20:41;;;;;;;1.40;0.90;;;14.40;1.00;;;;;;5019264;28;20463;-60
2022/04/26 12:23:26;;;;;;;2.80;0.90;;;14.50;1.00;;;;;;5013688;28;20579;-61
2022/04/26 12:26:14;;;;;;;3.30;1.00;;;14.40;1.00;;;;;;5033153;28;20464;-58
2022/04/26 12:31:52;;;;;;;1.67;0.90;;;14.00;1.00;;;;;;5016041;28;20436;-58
2022/04/26 12:34:49;;;;;;;2.00;1.00;;;14.10;3.20;;;;;;5012606;28;20436;-59
2022/04/26 12:37:23;;;;;;;1.37;0.90;;;13.90;38.10;;;;;;5037068;28;20484;-60
2022/04/26 12:40:10;;;;;;;2.20;0.80;;;13.50;99.90;;;;;;5036763;28;20491;-59
2022/04/26 12:42:45;;;;;;;1.10;0.80;;;13.20;99.90;;;;;;5037871;28;20455;-60
2022/04/26 12:45:20;;;;;;;1.83;0.80;;;13.00;99.90;;;;;;5019629;28;20562;-57
2022/04/26 12:51:24;;;;;;;3.10;0.60;;;12.30;1.00;;;;;;5035051;28;20772;-56
2022/04/26 12:54:12;;;;;;;1.90;0.50;;;12.00;99.90;;;;;;5034453;28;20616;-56
2022/04/26 13:00:03;;;;;;;0.77;0.43;;;11.90;1.00;;;;;;5035793;28;20922;-57
2022/04/26 13:02:30;;;;;;;1.10;0.60;;;11.60;1.00;;;;;;5034522;28;20480;-55
2022/04/26 13:05:15;;;;;;;1.70;0.60;;;11.60;1.00;;;;;;5037223;28;20524;-55
2022/04/26 13:08:04;;;;;;;0.80;0.40;;;11.50;1.00;;;;;;5036037;28;20483;-58
2022/04/26 13:10:53;;;;;;;1.10;0.60;;;11.50;1.00;;;;;;5017599;28;20820;-57
2022/04/26 13:13:39;;;;;;;1.00;0.60;;;11.50;1.00;;;;;;5032858;28;20554;-59
2022/04/26 13:16:07;;;;;;;1.67;0.70;;;11.50;1.00;;;;;;5028098;28;20472;-58
2022/04/26 13:18:46;;;;;;;1.40;0.90;;;11.70;1.00;;;;;;5096509;28;20469;-59
2022/04/26 13:21:26;;;;;;;1.07;0.60;;;12.00;1.00;;;;;;5097278;28;20457;-59
2022/04/26 13:23:59;;;;;;;3.03;0.70;;;12.10;99.90;;;;;;5094010;28;20484;-59
2022/04/26 13:29:36;;;;;;;0.80;0.50;;;13.00;1.00;;;;;;5094035;28;20437;-59
2022/04/26 13:32:08;;;;;;;1.43;0.53;;;13.40;99.90;;;;;;5095416;28;20442;-59
2022/04/26 13:34:35;;;;;;;1.17;0.63;;;13.50;60.60;;;;;;5089543;28;20522;-59
2022/04/26 13:37:07;;;;;;;0.80;0.50;;;13.60;1.00;;;;;;5093940;28;20528;-59
2022/04/26 13:39:39;;;;;;;0.60;0.50;;;13.40;1.00;;;;;;5094291;28;20548;-57
2022/04/26 13:42:11;;;;;;;0.80;0.60;;;13.30;1.00;;;;;;5096169;28;20445;-58
2022/04/26 13:44:38;;;;;;;0.70;0.50;;;13.30;99.90;;;;;;5096503;28;20693;-57
2022/04/26 13:47:08;;;;;;;0.77;0.53;;;13.70;99.90;;;;;;5086657;28;20437;-56
2022/04/26 13:49:42;;;;;;;0.80;0.40;;;14.10;99.90;;;;;;5095067;28;20572;-55
2022/04/26 13:52:38;;;;;;;2.30;0.50;;;14.40;1.00;;;;;;5095744;28;20483;-56
2022/04/26 13:55:17;;;;;;;0.50;0.30;;;14.70;1.00;;;;;;5089203;28;20534;-55
2022/04/26 13:57:56;;;;;;;0.50;0.30;;;14.70;1.00;;;;;;5096009;28;20468;-56
2022/04/26 14:00:43;;;;;;;0.60;0.40;;;14.90;1.00;;;;;;5090813;28;20481;-57
2022/04/26 14:06:08;;;;;;;0.70;0.50;;;15.50;1.00;;;;;;5086257;28;20726;-58
2022/04/26 14:08:49;;;;;;;0.50;0.30;;;15.40;1.00;;;;;;5088115;28;20550;-59
2022/04/26 14:11:27;;;;;;;0.60;0.40;;;15.60;1.00;;;;;;5089615;28;20434;-58
2022/04/26 14:22:49;;;;;;;0.60;0.50;;;16.00;1.00;;;;;;5086167;28;20478;-58
2022/04/26 14:25:41;;;;;;;0.80;0.40;;;15.70;1.00;;;;;;5085404;28;21159;-57
2022/04/26 14:28:17;;;;;;;0.80;0.50;;;15.50;1.00;;;;;;5091455;28;20886;-58
2022/04/26 14:31:02;;;;;;;0.77;0.60;;;15.30;1.00;;;;;;5090826;28;20476;-58
2022/04/26 14:33:39;;;;;;;0.80;0.60;;;14.90;1.00;;;;;;5087725;28;20882;-58
2022/04/26 14:36:14;;;;;;;0.93;0.60;;;14.70;1.00;;;;;;5089743;28;20453;-58
2022/04/26 14:41:42;;;;;;;3.30;0.60;;;14.50;1.00;;;;;;5093531;28;20481;-58
2022/04/26 14:44:18;;;;;;;2.00;0.70;;;14.20;1.00;;;;;;5095113;28;20998;-58
2022/04/26 14:46:52;;;;;;;0.73;0.50;;;14.10;1.00;;;;;;5095218;28;20452;-58
2022/04/26 14:49:43;;;;;;;1.23;0.50;;;14.00;1.00;;;;;;5093697;28;20471;-58
2022/04/26 14:52:30;;;;;;;0.80;0.50;;;14.10;1.00;;;;;;5094000;28;20937;-58
2022/04/26 14:55:05;;;;;;;1.30;0.50;;;14.20;1.00;;;;;;5090413;28;20469;-57
2022/04/26 14:58:01;;;;;;;0.60;0.40;;;14.20;1.00;;;;;;5085746;28;20739;-57
2022/04/26 15:00:44;;;;;;;0.70;0.50;;;14.20;1.00;;;;;;5072554;28;20481;-59
2022/04/26 15:03:43;;;;;;;0.80;0.60;;;14.60;1.00;;;;;;5041709;28;20453;-59
2022/04/26 15:06:21;;;;;;;0.80;0.60;;;14.40;1.00;;;;;;5084371;28;20454;-59
2022/04/26 15:17:57;;;;;;;0.90;0.60;;;14.80;1.00;;;;;;5092320;28;20453;-59
2022/04/26 15:23:20;;;;;;;0.90;0.60;;;14.60;1.00;;;;;;5084480;28;20488;-59
2022/04/26 15:25:53;;;;;;;1.00;0.60;;;14.40;1.00;;;;;;5088339;28;20446;-59
2022/04/26 15:28:30;;;;;;;1.10;0.60;;;14.40;1.00;;;;;;5089241;28;20461;-59
2022/04/26 15:31:01;;;;;;;0.80;0.50;;;14.30;1.00;;;;;;5092141;28;20499;-58
2022/04/26 15:37:08;;;;;;;1.33;0.50;;;14.00;1.00;;;;;;5089811;28;20475;-59
2022/04/26 15:39:35;;;;;;;0.70;0.60;;;13.90;1.00;;;;;;5092320;28;20466;-58
2022/04/26 15:42:17;;;;;;;0.80;0.60;;;13.60;1.00;;;;;;5089077;28;20558;-58
2022/04/26 15:44:51;;;;;;;1.03;0.60;;;13.40;99.90;;;;;;5080804;28;20770;-58
2022/04/26 15:47:39;;;;;;;0.93;0.67;;;13.20;1.00;;;;;;5079987;28;20461;-57
2022/04/26 15:50:11;;;;;;;1.50;0.70;;;13.10;1.00;;;;;;5078956;28;20742;-52
2022/04/26 15:52:45;;;;;;;1.00;0.60;;;12.80;1.00;;;;;;5089068;28;20457;-49
2022/04/26 15:55:24;;;;;;;0.80;0.60;;;12.70;1.00;;;;;;5093439;28;20469;-53
2022/04/26 15:58:11;;;;;;;0.63;0.50;;;12.70;99.90;;;;;;5075239;28;20519;-51
2022/04/26 16:01:03;;;;;;;0.80;0.50;;;12.70;99.90;;;;;;5081913;28;20458;-52
2022/04/26 16:03:44;;;;;;;0.73;0.40;;;12.70;99.90;;;;;;5091848;28;20481;-51
2022/04/26 16:06:28;;;;;;;1.00;0.50;;;12.30;99.90;;;;;;5091269;28;20468;-56
2022/04/26 16:20:56;;;;;;;0.50;0.37;;;12.00;99.90;;;;;;5090964;28;20464;-56
2022/04/26 16:23:33;;;;;;;0.70;0.50;;;12.20;1.00;;;;;;5074028;28;20965;-57
2022/04/26 16:26:07;;;;;;;0.70;0.40;;;12.10;99.90;;;;;;5090281;28;20750;-58
2022/04/26 16:28:42;;;;;;;0.70;0.43;;;12.00;1.00;;;;;;5092313;28;20460;-53
2022/04/26 16:31:28;;;;;;;0.90;0.60;;;11.90;1.00;;;;;;5092017;28;21072;-55
2022/04/26 16:36:53;;;;;;;0.70;0.50;;;11.70;1.00;;;;;;5090737;28;20924;-57
2022/04/26 16:42:20;;;;;;;0.80;0.50;;;11.80;1.00;;;;;;5092958;28;20454;-55
2022/04/26 16:45:22;;;;;;;0.67;0.40;;;11.90;1.00;;;;;;5091281;28;21000;-57
2022/04/26 16:48:05;;;;;;;0.60;0.50;;;12.00;1.00;;;;;;5080442;28;20461;-58
2022/04/26 16:50:47;;;;;;;0.83;0.50;;;12.10;1.00;;;;;;5077596;28;20468;-58
2022/04/26 16:53:22;;;;;;;1.00;0.53;;;12.20;1.00;;;;;;5090604;28;20848;-58
2022/04/26 16:56:05;;;;;;;1.10;0.50;;;12.20;1.00;;;;;;5073528;28;20497;-59
2022/04/26 16:58:56;;;;;;;0.80;0.50;;;12.20;1.00;;;;;;5055824;28;20502;-58
2022/04/26 17:01:43;;;;;;;0.93;0.50;;;12.20;1.00;;;;;;5068515;28;20524;-56
2022/04/26 17:04:21;;;;;;;0.80;0.40;;;12.20;1.00;;;;;;5063051;28;20545;-58
2022/04/26 17:07:01;;;;;;;0.70;0.40;;;12.20;1.00;;;;;;5064435;28;20766;-59
2022/04/26 17:10:11;;;;;;;0.67;0.30;;;12.20;1.00;;;;;;5067765;28;21108;-55
2022/04/26 17:18:42;;;;;;;1.17;0.60;;;11.80;1.00;;;;;;5035001;28;20661;-57
2022/04/26 17:21:12;;;;;;;0.60;0.40;;;11.80;1.00;;;;;;5013712;28;20449;-57
2022/04/26 17:23:48;;;;;;;0.60;0.40;;;11.50;1.00;;;;;;5074837;28;20442;-57
2022/04/26 17:26:30;;;;;;;0.63;0.40;;;11.30;1.00;;;;;;5076132;28;20511;-53
2022/04/26 17:29:05;;;;;;;0.60;0.40;;;11.40;1.00;;;;;;5075760;28;20450;-56
2022/04/26 17:31:57;;;;;;;0.77;0.40;;;11.50;1.00;;;;;;5076482;28;20787;-55
2022/04/26 17:37:29;;;;;;;0.90;0.40;;;11.50;1.00;;;;;;5075511;28;20713;-54
2022/04/26 17:40:20;;;;;;;0.50;0.40;;;11.60;1.00;;;;;;5077609;28;20439;-54
2022/04/26 17:43:09;;;;;;;0.60;0.40;;;11.70;1.00;;;;;;5076511;28;20945;-51
2022/04/26 17:45:48;;;;;;;0.90;0.50;;;11.70;1.00;;;;;;5075597;28;20486;-54
2022/04/26 17:48:28;;;;;;;0.83;0.40;;;11.60;1.00;;;;;;5075771;28;20442;-52
2022/04/26 17:50:58;;;;;;;0.80;0.40;;;11.50;1.00;;;;;;5075301;28;20520;-55
2022/04/26 18:01:56;;;;;;;0.80;0.40;;;11.50;1.00;;;;;;5092339;28;20753;-54
2022/04/26 18:04:26;;;;;;;0.63;0.40;;;11.60;1.00;;;;;;5093788;28;20488;-52
2022/04/26 18:06:54;;;;;;;1.17;0.40;;;11.70;1.00;;;;;;5092666;28;20548;-52
2022/04/26 18:09:33;;;;;;;1.00;0.50;;;11.60;1.00;;;;;;5092950;28;20465;-51
2022/04/26 18:12:11;;;;;;;1.70;0.50;;;11.50;1.00;;;;;;5078323;28;20527;-50
2022/04/26 18:18:27;;;;;;;0.50;0.40;;;11.30;1.00;;;;;;5094809;28;20436;-54
2022/04/26 18:21:12;;;;;;;0.70;0.47;;;11.30;1.00;;;;;;5090331;28;20465;-54
2022/04/26 18:23:46;;;;;;;0.57;0.40;;;11.20;1.00;;;;;;5039924;28;20524;-55
2022/04/26 18:26:34;;;;;;;1.07;0.50;;;11.10;1.00;;;;;;5075992;28;20710;-57
2022/04/26 18:29:08;;;;;;;0.57;0.37;;;11.10;1.00;;;;;;5093940;28;20780;-52
2022/04/26 18:31:46;;;;;;;0.70;0.40;;;11.10;1.00;;;;;;5053755;28;20710;-55
2022/04/26 18:34:19;;;;;;;1.03;0.50;;;11.00;1.00;;;;;;5051220;28;20463;-53
2022/04/26 18:36:48;;;;;;;0.50;0.30;;;10.80;1.00;;;;;;5059029;28;20568;-49
2022/04/26 18:39:24;;;;;;;0.70;0.40;;;10.60;1.00;;;;;;5095586;28;20908;-54
2022/04/26 18:41:56;;;;;;;0.83;0.40;;;10.60;24.10;;;;;;5088276;28;20475;-56
2022/04/26 18:44:34;;;;;;;0.70;0.40;;;10.70;16.10;;;;;;5071585;28;20449;-57
2022/04/26 18:47:19;;;;;;;1.60;0.50;;;10.70;17.10;;;;;;5058401;28;20461;-54
2022/04/26 18:49:55;;;;;;;1.00;0.50;;;10.70;21.50;;;;;;5060101;28;20927;-54
2022/04/26 18:52:36;;;;;;;1.00;0.60;;;10.70;19.60;;;;;;5085903;28;20478;-56
2022/04/26 18:55:11;;;;;;;0.80;0.50;;;10.60;14.90;;;;;;5065740;28;20449;-50
2022/04/26 18:57:48;;;;;;;0.73;0.50;;;10.70;42.50;;;;;;5057663;28;20752;-55
2022/04/26 19:00:38;;;;;;;1.80;0.40;;;10.70;21.00;;;;;;5090431;28;20889;-54
2022/04/26 19:03:10;;;;;;;0.93;0.50;;;10.80;21.90;;;;;;5093255;28;20755;-56
2022/04/26 19:06:13;;;;;;;0.80;0.40;;;10.80;1.00;;;;;;5090385;28;20477;-56
2022/04/26 19:08:48;;;;;;;0.87;0.50;;;10.80;23.60;;;;;;5027529;28;20480;-55
2022/04/26 19:14:21;;;;;;;0.80;0.60;;;10.70;1.00;;;;;;5072490;28;20658;-55
2022/04/26 19:16:57;;;;;;;0.97;0.60;;;10.70;1.00;;;;;;5095203;28;20477;-53
2022/04/26 19:19:29;;;;;;;1.30;0.97;;;10.70;1.00;;;;;;5096599;28;20475;-54
2022/04/26 19:22:16;;;;;;;1.27;0.90;;;10.60;1.00;;;;;;5091433;28;20479;-50
2022/04/26 19:24:48;;;;;;;0.70;0.40;;;10.50;1.00;;;;;;5096236;28;20474;-53
2022/04/26 19:27:24;;;;;;;0.97;0.40;;;10.30;1.00;;;;;;5091496;28;20742;-54
2022/04/26 19:30:12;;;;;;;0.70;0.40;;;10.20;18.10;;;;;;5092646;28;20499;-52
2022/04/26 19:35:48;;;;;;;0.90;0.67;;;9.80;84.30;;;;;;5086008;28;20438;-56
2022/04/26 19:38:47;;;;;;;1.27;0.50;;;9.90;99.00;;;;;;5064203;28;20478;-57
2022/04/26 19:48:09;;;;;;;1.43;0.60;;;9.90;99.00;;;;;;5088406;28;20473;-54
2022/04/26 19:53:36;;;;;;;0.70;0.40;;;9.70;95.10;;;;;;5074472;28;20434;-55
2022/04/26 19:56:18;;;;;;;0.93;0.50;;;9.60;99.90;;;;;;5072633;28;20898;-51
2022/04/26 19:58:57;;;;;;;1.10;0.60;;;9.60;99.90;;;;;;5073899;28;20881;-52
2022/04/26 20:01:32;;;;;;;1.17;0.50;;;9.50;99.90;;;;;;5075578;28;20458;-51
2022/04/26 20:04:02;;;;;;;1.07;0.70;;;9.70;99.90;;;;;;5074457;28;20562;-52
2022/04/26 20:09:33;;;;;;;0.73;0.47;;;9.60;99.90;;;;;;5093101;28;20446;-52
2022/04/26 20:12:31;;;;;;;1.07;0.50;;;9.50;99.90;;;;;;5092543;28;20459;-51
2022/04/26 20:15:10;;;;;;;0.83;0.57;;;9.50;99.90;;;;;;5087891;28;20807;-52
2022/04/26 20:18:33;;;;;;;0.77;0.47;;;9.40;99.90;;;;;;5095236;28;20887;-52